HomeShort term forecast

Short term forecast

Graphical weather forecast for the next 48 hours for Montreal:
Short term forecast
This weather forecast is automatically refreshed every 3 hours.

Hourly Experimental Forecast for the next 48 hours

Overall summary: Mostly cloudy starting tonight.

 Date & Hour   Temp   Feel   Baro   Hum   Speed & Bearing   Wind Gust   Precip.%   Precip.   Visibility   Cloud cover   Conditions 
 18/10/2018 - 11:00  2.5°C  -2.0°C  1025.0 hPa  49%  19.3 km/h   34.2 km/h  4%  0.01 mm/h  16.1km  28%  Partly Cloudy 
 18/10/2018 - 12:00  3.0°C  -1.6°C  1024.7 hPa  46%  21.3 km/h   33.4 km/h  0%  --  16.1km  23%  Clear 
 18/10/2018 - 13:00  3.6°C  -1.0°C  1024.3 hPa  42%  23.0 km/h   35.4 km/h  4%  0.04 mm/h  16.1km  8%  Clear 
 18/10/2018 - 14:00  4.1°C  -0.5°C  1023.9 hPa  41%  23.0 km/h   36.9 km/h  3%  0.04 mm/h  16.1km  6%  Clear 
 18/10/2018 - 15:00  4.4°C  -0.1°C  1023.9 hPa  39%  23.5 km/h   37.6 km/h  3%  0.02 mm/h  16.1km  19%  Clear 
 18/10/2018 - 16:00  4.3°C  -0.1°C  1023.9 hPa  39%  23.2 km/h   35.1 km/h  3%  0.04 mm/h  16.1km  23%  Clear 
 18/10/2018 - 17:00  4.2°C  -0.1°C  1023.9 hPa  40%  22.1 km/h   34.3 km/h  2%  0.01 mm/h  16.1km  22%  Clear 
 18/10/2018 - 18:00  3.7°C  -0.4°C  1023.9 hPa  42%  19.3 km/h   35.0 km/h  2%  0.04 mm/h  16.1km  4%  Clear 
 18/10/2018 - 19:00  3.0°C  -0.9°C  1024.0 hPa  44%  15.8 km/h   35.3 km/h  0%  --  16.1km  4%  Clear 
 18/10/2018 - 20:00  2.3°C  -1.1°C  1023.9 hPa  47%  12.6 km/h   34.5 km/h  0%  --  16.1km  15%  Clear 
 18/10/2018 - 21:00  2.0°C  -0.9°C  1023.8 hPa  49%  10.2 km/h   31.4 km/h  0%  --  16.1km  19%  Clear 
 18/10/2018 - 22:00  2.2°C  -0.4°C  1023.3 hPa  49%  9.0 km/h   24.3 km/h  0%  --  16.1km  48%  Partly Cloudy 
 18/10/2018 - 23:00  2.6°C  0.2°C  1022.7 hPa  50%  8.7 km/h   19.9 km/h  0%  --  16.1km  73%  Mostly Cloudy 
 19/10/2018 - 00:00  2.7°C  0.3°C  1022.0 hPa  54%  8.9 km/h   22.3 km/h  0%  --  16.1km  67%  Mostly Cloudy 
 19/10/2018 - 01:00  3.0°C  0.2°C  1021.4 hPa  56%  10.6 km/h   32.9 km/h  0%  --  16.1km  97%  Overcast 
 19/10/2018 - 02:00  3.2°C  0.1°C  1020.7 hPa  61%  11.6 km/h   39.2 km/h  2%  0.01 mm/h  16.1km  96%  Overcast 
 19/10/2018 - 03:00  3.4°C  0.2°C  1019.9 hPa  64%  12.5 km/h   42.3 km/h  1%  0.01 mm/h  16.1km  97%  Overcast 
 19/10/2018 - 04:00  3.7°C  0.3°C  1019.0 hPa  67%  13.7 km/h   44.0 km/h  0%  --  16.1km  97%  Overcast 
 19/10/2018 - 05:00  3.7°C  0.3°C  1018.2 hPa  70%  14.7 km/h   44.5 km/h  0%  --  16.1km  96%  Overcast 
 19/10/2018 - 06:00  3.5°C  -0.1°C  1017.6 hPa  74%  14.9 km/h   43.6 km/h  0%  --  16.1km  85%  Mostly Cloudy 
 19/10/2018 - 07:00  3.5°C  0.0°C  1017.1 hPa  75%  14.4 km/h   41.7 km/h  0%  --  16.1km  80%  Mostly Cloudy 
 19/10/2018 - 08:00  4.1°C  0.7°C  1016.6 hPa  75%  15.0 km/h   40.5 km/h  0%  --  16.1km  79%  Mostly Cloudy 
 19/10/2018 - 09:00  5.3°C  1.9°C  1015.8 hPa  75%  16.9 km/h   40.6 km/h  0%  --  16.1km  60%  Mostly Cloudy 
 19/10/2018 - 10:00  7.3°C  3.9°C  1015.2 hPa  72%  20.4 km/h   41.2 km/h  0%  --  16.1km  45%  Partly Cloudy 
 19/10/2018 - 11:00  9.2°C  6.1°C  1014.4 hPa  70%  23.5 km/h   41.9 km/h  0%  --  16.1km  35%  Partly Cloudy 
 19/10/2018 - 12:00  10.8°C  10.8°C  1013.4 hPa  68%  25.2 km/h   42.3 km/h  0%  --  16.1km  34%  Partly Cloudy 
 19/10/2018 - 13:00  12.1°C  12.1°C  1012.4 hPa  66%  26.3 km/h   42.8 km/h  2%  0.01 mm/h  16.1km  35%  Partly Cloudy 
 19/10/2018 - 14:00  13.5°C  13.5°C  1011.3 hPa  63%  26.7 km/h   43.6 km/h  2%  0.01 mm/h  16.1km  38%  Partly Cloudy 
 19/10/2018 - 15:00  14.5°C  14.5°C  1010.3 hPa  62%  26.2 km/h   44.6 km/h  2%  0.01 mm/h  16.1km  44%  Partly Cloudy 
 19/10/2018 - 16:00  15.1°C  15.1°C  1009.3 hPa  62%  25.1 km/h   45.8 km/h  2%  0.01 mm/h  16.1km  52%  Partly Cloudy 
 19/10/2018 - 17:00  15.1°C  15.1°C  1008.5 hPa  63%  24.3 km/h   47.8 km/h  0%  --  16.1km  58%  Partly Cloudy 
 19/10/2018 - 18:00  14.5°C  14.5°C  1008.0 hPa  65%  23.9 km/h   51.1 km/h  0%  --  16.1km  68%  Mostly Cloudy 
 19/10/2018 - 19:00  13.2°C  13.2°C  1007.6 hPa  69%  23.7 km/h   55.2 km/h  0%  --  16.1km  81%  Mostly Cloudy 
 19/10/2018 - 20:00  12.4°C  12.4°C  1007.1 hPa  71%  23.6 km/h   58.2 km/h  0%  --  16.1km  90%  Mostly Cloudy 
 19/10/2018 - 21:00  12.2°C  12.2°C  1006.3 hPa  70%  23.5 km/h   59.8 km/h  5%  0.01 mm/h  16.1km  93%  Mostly Cloudy 
 19/10/2018 - 22:00  12.3°C  12.3°C  1005.4 hPa  68%  23.5 km/h   60.5 km/h  7%  0.02 mm/h  16.1km  97%  Overcast 
 19/10/2018 - 23:00  12.3°C  12.3°C  1004.4 hPa  66%  23.5 km/h   60.3 km/h  9%  0.04 mm/h  16.1km  100%  Overcast 
 20/10/2018 - 00:00  12.1°C  12.1°C  1003.5 hPa  64%  23.6 km/h   58.6 km/h  10%  0.06 mm/h  16.1km  100%  Overcast 
 20/10/2018 - 01:00  11.8°C  11.8°C  1002.6 hPa  62%  23.8 km/h   55.8 km/h  9%  0.08 mm/h  16.1km  100%  Overcast 
 20/10/2018 - 02:00  11.5°C  11.5°C  1001.7 hPa  61%  24.2 km/h   53.7 km/h  8%  0.09 mm/h  16.1km  100%  Overcast 
 20/10/2018 - 03:00  11.0°C  11.0°C  1000.6 hPa  61%  24.8 km/h   53.0 km/h  11%  0.10 mm/h  16.1km  100%  Breezy and Overcast 
 20/10/2018 - 04:00  10.2°C  10.2°C  999.6 hPa  62%  25.5 km/h   52.9 km/h  16%  0.13 mm/h  16.1km  100%  Breezy and Overcast 
 20/10/2018 - 05:00  9.5°C  6.2°C  998.7 hPa  65%  26.2 km/h   53.0 km/h  25%  0.19 mm/h  16.1km  100%  Breezy and Overcast 
 20/10/2018 - 06:00  8.5°C  4.9°C  998.0 hPa  71%  26.8 km/h   53.5 km/h  35%  0.30 mm/h  16.1km  100%  Breezy and Overcast 
 20/10/2018 - 07:00  7.9°C  4.1°C  997.4 hPa  77%  27.5 km/h   54.1 km/h  43%  0.48 mm/h  15.1km  100%  Breezy and Overcast 
 20/10/2018 - 08:00  8.1°C  4.3°C  997.0 hPa  79%  28.2 km/h   54.4 km/h  46%  0.58 mm/h  13.5km  100%  Breezy and Overcast 
 20/10/2018 - 09:00  8.5°C  4.7°C  997.0 hPa  82%  29.0 km/h   54.0 km/h  51%  0.46 mm/h  14.6km  100%  Breezy and Overcast 
 20/10/2018 - 10:00  9.2°C  5.6°C  997.1 hPa  83%  29.8 km/h   53.1 km/h  41%  0.27 mm/h  16.1km  100%  Breezy and Overcast 
Test

 

Past weather and reports

Past weatherFind in this section the past weather conditions, weather archive, graphics, reports and statistics.

Current conditions

Current weather condition for MontrealAll you need to know about the current weather conditions for Montreal. Weather data is updated every 10 minutes.

Weather forecast

Current Montreal weatherSince 2004, celinium.com website has provided accurate weather forecast for Montreal's island.